Weather reports worldwide

Advertisment
Oliva, Spain (8282): temperature & dewpoint: 10.07.2018 18:00:00 - 16.07.2018 18:00:00 (CEST)Oliva, Spain (8282): wind speed & gusts: 10.07.2018 18:00:00 - 16.07.2018 18:00:00 (CEST)Oliva, Spain (8282): wind direction: 10.07.2018 18:00:00 - 16.07.2018 18:00:00 (CEST)Oliva, Spain (8282): precipitation: 10.07.2018 18:00:00 - 16.07.2018 18:00:00 (CEST)
Date & Time tt [°C] td [°C] ff [km/h] ff [kn] fx [km/h] fx [kn] dd rr [mm]
16.07.2018 18:00:00 - - - - - - - -
16.07.2018 17:00:00 30,6 17,7 12 6 23 13 ESE 0,0
16.07.2018 16:00:00 31,3 14,0 10 6 25 14 E 0,0
16.07.2018 15:00:00 34,3 8,8 10 6 30 16 WNW 0,0
16.07.2018 14:00:00 33,3 10,0 13 7 35 19 NW -
16.07.2018 13:00:00 32,0 8,9 15 8 39 21 WNW 0,0
16.07.2018 12:00:00 30,3 9,8 15 8 46 25 W 0,0
16.07.2018 11:00:00 28,8 9,6 23 12 48 26 WNW 0,0
16.07.2018 10:00:00 27,6 9,4 11 6 39 21 W 0,0
16.07.2018 09:00:00 26,5 9,3 11 6 32 18 W 0,0
16.07.2018 08:00:00 25,1 8,5 14 8 29 15 WNW -
16.07.2018 07:00:00 24,9 8,0 9 5 32 17 W 0,0
16.07.2018 06:00:00 25,7 8,3 13 7 32 17 W 0,0
16.07.2018 05:00:00 26,4 7,8 16 8 37 20 WNW 0,0
16.07.2018 04:00:00 27,2 8,1 14 8 35 19 WNW 0,0
16.07.2018 03:00:00 27,0 8,0 7 4 18 10 W 0,0
16.07.2018 02:00:00 25,4 13,3 2 1 8 4 W -
16.07.2018 01:00:00 26,1 22,4 5 3 16 8 WNW 0,0
16.07.2018 00:00:00 26,8 23,5 10 5 21 12 NW 0,0
15.07.2018 23:00:00 28,2 22,4 6 3 22 12 NNW 0,0
15.07.2018 22:00:00 30,8 12,2 3 2 25 14 SSE 0,0
15.07.2018 21:00:00 31,3 12,6 4 2 18 10 SSW 0,0
15.07.2018 20:00:00 32,9 14,0 2 1 25 13 SE -
15.07.2018 19:00:00 33,9 11,1 15 8 29 16 SSE 0,0
15.07.2018 18:00:00 31,1 17,1 16 8 32 18 E 0,0
15.07.2018 17:00:00 31,0 18,0 15 8 31 17 ESE 0,0
15.07.2018 16:00:00 31,6 16,0 13 7 26 14 ESE 0,0
15.07.2018 15:00:00 31,1 18,1 10 6 19 11 ESE 0,0
15.07.2018 14:00:00 31,1 19,1 10 5 18 10 ESE -
15.07.2018 13:00:00 30,2 18,9 8 5 15 8 E 0,0
15.07.2018 12:00:00 29,8 20,7 8 5 14 8 ESE 0,0
15.07.2018 11:00:00 29,7 21,1 5 3 13 7 E 0,0
15.07.2018 10:00:00 29,9 13,3 6 4 16 9 WNW 0,0
15.07.2018 09:00:00 26,9 21,0 3 2 6 3 ESE 0,0
15.07.2018 08:00:00 23,6 21,1 1 0 8 5 SSE -
15.07.2018 07:00:00 22,6 20,5 3 1 7 4 S 0,0
15.07.2018 06:00:00 23,3 21,4 2 1 6 3 S 0,0
15.07.2018 05:00:00 23,7 21,6 0 0 7 4 SSW 0,0
15.07.2018 04:00:00 24,5 22,2 3 1 6 3 S 0,0
15.07.2018 03:00:00 24,8 22,3 4 2 18 10 WNW 0,0
15.07.2018 02:00:00 25,3 22,8 4 2 16 9 NW -
15.07.2018 01:00:00 25,9 23,6 5 3 19 10 NW 0,0
15.07.2018 00:00:00 26,3 24,0 10 5 27 15 NNW 0,0
14.07.2018 23:00:00 27,1 24,6 12 6 26 14 NNW 0,0
14.07.2018 22:00:00 28,3 23,9 3 1 12 7 W 0,0
14.07.2018 21:00:00 30,0 24,2 7 4 18 10 SE 0,0
14.07.2018 20:00:00 31,5 22,3 10 6 22 12 SE -
14.07.2018 19:00:00 31,8 22,8 12 6 27 15 SE 0,0
14.07.2018 18:00:00 30,9 24,1 13 7 26 14 E 0,0
14.07.2018 17:00:00 31,0 25,6 11 6 22 12 E 0,0
14.07.2018 16:00:00 30,3 25,6 11 6 19 10 E 0,0
14.07.2018 15:00:00 29,4 24,7 11 6 17 9 ENE 0,0
14.07.2018 14:00:00 28,6 25,0 10 5 23 12 E -
14.07.2018 13:00:00 27,6 23,6 13 7 24 13 E 0,0
14.07.2018 12:00:00 27,5 23,3 10 5 20 11 E 0,0
14.07.2018 11:00:00 27,6 22,7 7 4 13 7 E 0,0
14.07.2018 10:00:00 26,8 21,6 7 4 10 5 ESE 0,0
14.07.2018 09:00:00 26,1 21,8 0 0 4 2 SSE 0,0
14.07.2018 08:00:00 23,0 21,1 0 0 4 2 S -
14.07.2018 07:00:00 21,9 20,0 2 1 5 3 W 0,0
14.07.2018 06:00:00 22,1 20,2 4 2 8 4 W 0,0
14.07.2018 05:00:00 22,4 20,5 3 2 7 4 W 0,0
14.07.2018 04:00:00 22,4 20,5 3 2 12 6 W 0,0
14.07.2018 03:00:00 22,7 20,6 4 2 10 5 W 0,0
14.07.2018 02:00:00 22,8 20,9 4 2 8 4 W -
14.07.2018 01:00:00 23,4 21,3 3 2 6 3 W 0,0
14.07.2018 00:00:00 24,1 21,8 0 0 6 3 N 0,0
13.07.2018 23:00:00 25,3 22,6 1 0 10 5 N 0,0
13.07.2018 22:00:00 25,4 22,7 4 2 8 5 N 0,0
13.07.2018 21:00:00 25,9 23,2 4 2 10 5 NNE 0,0
13.07.2018 20:00:00 26,4 23,7 5 3 13 7 NNE -
13.07.2018 19:00:00 27,0 24,1 6 4 15 8 NE 0,0
13.07.2018 18:00:00 27,6 24,6 8 4 22 12 NNE 0,0
13.07.2018 17:00:00 27,6 24,2 10 5 22 12 NE 0,0
13.07.2018 16:00:00 28,1 24,5 10 5 22 12 NE 0,0
13.07.2018 15:00:00 27,9 24,4 11 6 20 11 NNE 0,0
13.07.2018 14:00:00 27,6 24,5 11 6 22 12 NNE -
13.07.2018 13:00:00 27,9 24,9 11 6 21 12 NE 0,0
13.07.2018 12:00:00 27,9 24,7 8 5 21 11 NE 0,0
13.07.2018 11:00:00 27,3 24,4 9 5 22 12 NNE 0,0
13.07.2018 10:00:00 26,1 23,4 11 6 21 11 NNE 0,0
13.07.2018 09:00:00 25,5 23,2 10 5 23 12 NNE 0,0
13.07.2018 08:00:00 25,4 23,1 7 4 16 8 NNE -
13.07.2018 07:00:00 25,1 22,6 10 5 18 10 N 0,0
13.07.2018 06:00:00 25,2 22,7 8 4 19 11 NNE 0,0
13.07.2018 05:00:00 25,1 22,8 5 3 14 8 N 0,0
13.07.2018 04:00:00 25,1 22,6 7 4 16 8 NNE 0,0
13.07.2018 03:00:00 25,1 22,6 7 4 16 9 N 0,0
13.07.2018 02:00:00 25,3 23,0 8 5 16 9 NNE -
13.07.2018 01:00:00 25,3 23,2 6 3 12 6 N 0,0
13.07.2018 00:00:00 25,6 23,5 8 4 16 9 N 0,0
12.07.2018 23:00:00 25,6 23,1 5 3 11 6 NNE 0,0
12.07.2018 22:00:00 25,7 23,2 0 0 6 3 NNE 0,0
12.07.2018 21:00:00 26,4 23,5 2 1 10 5 ENE 0,0
12.07.2018 20:00:00 26,9 24,0 5 3 14 7 ENE -
12.07.2018 19:00:00 27,5 24,6 8 4 18 10 E 0,0
12.07.2018 18:00:00 27,6 24,0 8 4 18 10 E 0,0
12.07.2018 17:00:00 27,3 24,0 11 6 18 10 ENE 0,0
12.07.2018 16:00:00 27,8 24,5 10 5 16 9 ENE 0,0
12.07.2018 15:00:00 27,7 23,9 11 6 17 9 NE 0,0
12.07.2018 14:00:00 27,8 24,0 8 5 17 9 NE -
12.07.2018 13:00:00 27,9 23,9 8 4 15 8 NNE 0,0
12.07.2018 12:00:00 27,4 23,5 9 5 19 10 NNE 0,0
12.07.2018 11:00:00 27,2 23,5 10 5 20 11 N 0,0
12.07.2018 10:00:00 26,3 23,0 8 5 23 12 N 0,0
12.07.2018 09:00:00 24,7 22,4 7 4 14 7 NW 0,0
12.07.2018 08:00:00 23,4 21,3 5 3 11 6 WNW -
12.07.2018 07:00:00 22,9 20,8 4 2 9 5 W 0,0
12.07.2018 06:00:00 23,4 21,3 5 3 10 5 WNW 0,0
12.07.2018 05:00:00 23,4 21,5 2 1 6 3 WNW 0,0
12.07.2018 04:00:00 23,4 21,5 2 1 8 4 W 0,0
12.07.2018 03:00:00 23,3 21,4 4 2 7 4 WNW 0,0
12.07.2018 02:00:00 24,0 21,9 3 2 6 3 WNW -
12.07.2018 01:00:00 24,9 22,6 0 0 8 4 W 0,0
12.07.2018 00:00:00 25,2 22,9 3 2 18 10 NE 0,0
11.07.2018 23:00:00 25,2 22,9 12 7 22 12 ENE 0,0
11.07.2018 22:00:00 25,2 22,9 6 3 15 8 WNW 0,0
11.07.2018 21:00:00 26,1 23,6 5 3 11 6 N 0,0
11.07.2018 20:00:00 26,3 23,8 4 2 16 8 E -
11.07.2018 19:00:00 26,0 23,5 7 4 15 8 N 0,0
11.07.2018 18:00:00 26,9 24,0 7 4 15 8 ENE 0,0
11.07.2018 17:00:00 27,1 24,0 9 5 16 8 NE 0,0
11.07.2018 16:00:00 27,2 23,7 9 5 15 8 ENE 0,0
11.07.2018 15:00:00 27,8 24,2 8 5 16 9 NE 0,0
11.07.2018 14:00:00 27,6 23,9 9 5 20 11 NNE -
11.07.2018 13:00:00 27,0 23,3 12 6 21 11 NNE 0,0
11.07.2018 12:00:00 27,5 22,9 9 5 19 10 NNE 0,0
11.07.2018 11:00:00 26,6 22,9 11 6 27 15 NNE 0,0
11.07.2018 10:00:00 26,7 23,0 10 5 16 9 N 0,0
11.07.2018 09:00:00 25,8 22,1 6 3 12 7 NW 0,0
11.07.2018 08:00:00 23,4 21,1 3 1 8 4 WNW -
11.07.2018 07:00:00 22,6 20,3 5 3 7 4 NW 0,0
11.07.2018 06:00:00 23,2 20,7 4 2 13 7 WNW 0,0
11.07.2018 05:00:00 23,5 21,0 6 3 9 5 NW 0,0
11.07.2018 04:00:00 23,8 21,3 4 2 12 7 NW 0,0
11.07.2018 03:00:00 23,8 21,5 7 4 18 10 WNW 0,0
11.07.2018 02:00:00 24,5 22,2 10 5 21 11 NNW -
11.07.2018 01:00:00 24,8 22,5 9 5 27 15 NNW 0,0
11.07.2018 00:00:00 25,0 22,7 11 6 28 15 NNW 0,0
10.07.2018 23:00:00 25,5 21,6 8 4 18 10 NW 0,0
10.07.2018 22:00:00 26,2 20,3 6 3 22 12 WNW 0,0
10.07.2018 21:00:00 27,8 23,6 11 6 22 12 NW 0,0
10.07.2018 20:00:00 31,3 21,2 9 5 22 12 WNW -
10.07.2018 19:00:00 33,6 19,6 8 4 23 12 SE 0,0
10.07.2018 18:00:00 32,2 20,1 8 5 21 12 ESE 0,0

tt = temperature
td = dewpoint
ff = wind speed
fx = gusts
dd = wind direction
rr = precipitation

Next stations